Time;durP1;ratioP1;P1;durP2;ratioP2;P2;SDS_P1;SDS_P2;PMS_P1;PMS_P2;Temp;Humidity;BMP_temperature;BMP_pressure;BME280_temperature;BME280_humidity;BME280_pressure;Samples;Min_cycle;Max_cycle;Signal;HPM_P1;HPM_P2
2023/06/22 00:01:58;;;;;;;1.48;0.60;;;21.30;99.90;;;;;;4402217;32;20144;-74
2023/06/22 00:04:23;;;;;;;2.28;0.98;;;21.30;99.90;;;;;;4402602;32;20425;-75
2023/06/22 00:06:49;;;;;;;0.60;0.60;;;21.20;99.90;;;;;;4401228;32;20099;-75
2023/06/22 00:09:14;;;;;;;0.73;0.73;;;21.30;99.90;;;;;;4402104;32;20106;-76
2023/06/22 00:11:40;;;;;;;0.57;0.57;;;21.30;99.90;;;;;;4403493;32;20196;-75
2023/06/22 00:14:05;;;;;;;0.75;0.73;;;21.30;99.90;;;;;;4403903;32;20082;-74
2023/06/22 00:16:32;;;;;;;2.00;0.90;;;21.30;99.90;;;;;;4400443;32;20061;-74
2023/06/22 00:19:00;;;;;;;0.85;0.70;;;21.30;99.90;;;;;;4405702;32;20493;-75
2023/06/22 00:21:27;;;;;;;0.40;0.40;;;21.20;99.90;;;;;;4402889;32;20304;-74
2023/06/22 00:23:52;;;;;;;0.50;0.50;;;21.10;99.90;;;;;;4403622;32;20114;-75
2023/06/22 00:26:18;;;;;;;0.32;0.32;;;21.10;99.90;;;;;;4403116;32;20070;-74
2023/06/22 00:28:44;;;;;;;0.47;0.47;;;21.10;99.90;;;;;;4401110;32;20098;-74
2023/06/22 00:31:09;;;;;;;0.88;0.70;;;21.00;99.90;;;;;;4403961;32;20110;-74
2023/06/22 00:33:35;;;;;;;0.68;0.68;;;21.00;99.90;;;;;;4402987;32;20105;-74
2023/06/22 00:36:02;;;;;;;0.40;0.40;;;20.90;99.90;;;;;;4402058;32;20196;-74
2023/06/22 00:38:28;;;;;;;1.10;0.70;;;21.00;99.90;;;;;;4401710;32;20101;-74
2023/06/22 00:40:54;;;;;;;0.60;0.60;;;21.00;99.90;;;;;;4406523;32;20399;-74
2023/06/22 00:43:20;;;;;;;0.50;0.47;;;21.10;99.90;;;;;;4405596;32;20161;-75
2023/06/22 00:45:45;;;;;;;1.17;0.82;;;21.10;99.90;;;;;;4404830;32;20090;-73
2023/06/22 00:48:13;;;;;;;0.50;0.50;;;21.10;99.90;;;;;;4402133;32;20085;-75
2023/06/22 00:50:40;;;;;;;1.08;0.98;;;21.00;99.90;;;;;;4402094;32;20170;-73
2023/06/22 00:53:08;;;;;;;1.25;0.77;;;20.90;99.90;;;;;;4405086;32;20061;-75
2023/06/22 00:55:37;;;;;;;0.50;0.50;;;20.80;99.90;;;;;;4405117;32;20169;-75
2023/06/22 00:58:05;;;;;;;0.47;0.45;;;20.90;99.90;;;;;;4400626;32;20121;-74
2023/06/22 01:00:32;;;;;;;0.40;0.40;;;20.80;99.90;;;;;;4402404;32;20063;-73
2023/06/22 01:02:58;;;;;;;1.80;0.73;;;20.80;99.90;;;;;;4405367;32;20129;-75
2023/06/22 01:05:24;;;;;;;0.52;0.52;;;20.80;99.90;;;;;;4401644;32;20541;-76
2023/06/22 01:08:23;;;;;;;0.73;0.73;;;20.80;99.90;;;;;;4404685;32;20321;-76
2023/06/22 01:10:55;;;;;;;0.55;0.55;;;20.90;99.90;;;;;;4381291;32;20102;-74
2023/06/22 01:13:29;;;;;;;1.08;0.68;;;20.90;99.90;;;;;;4402967;32;20142;-76
2023/06/22 01:16:17;;;;;;;0.85;0.82;;;20.90;99.90;;;;;;4389697;32;20146;-77
2023/06/22 01:18:44;;;;;;;2.78;0.77;;;20.90;99.90;;;;;;4394123;32;20058;-74
2023/06/22 01:21:16;;;;;;;0.50;0.50;;;20.90;99.90;;;;;;4401424;32;20113;-75
2023/06/22 01:23:51;;;;;;;1.08;0.80;;;21.00;99.90;;;;;;4401659;32;20074;-74
2023/06/22 01:26:27;;;;;;;0.62;0.62;;;20.90;99.90;;;;;;4390510;32;20086;-74
2023/06/22 01:28:55;;;;;;;0.60;0.55;;;20.80;99.90;;;;;;4401928;32;20066;-74
2023/06/22 01:31:24;;;;;;;0.50;0.50;;;20.80;99.90;;;;;;4403594;32;20128;-74
2023/06/22 01:33:53;;;;;;;7.15;1.77;;;20.80;99.90;;;;;;4401514;32;20078;-74
2023/06/22 01:36:20;;;;;;;0.50;0.50;;;20.80;99.90;;;;;;4405196;32;20142;-75
2023/06/22 01:38:47;;;;;;;0.40;0.40;;;20.80;99.90;;;;;;4402260;32;20439;-73
2023/06/22 01:41:13;;;;;;;0.75;0.68;;;20.80;99.90;;;;;;4403569;32;20079;-73
2023/06/22 01:43:39;;;;;;;0.50;0.50;;;20.90;99.90;;;;;;4401684;32;20502;-73
2023/06/22 01:46:04;;;;;;;1.20;0.88;;;20.90;99.90;;;;;;4401524;32;20094;-75
2023/06/22 01:48:31;;;;;;;0.73;0.73;;;20.80;99.90;;;;;;4402858;32;20109;-74
2023/06/22 01:50:57;;;;;;;0.32;0.32;;;20.80;99.90;;;;;;4404912;32;20133;-75
2023/06/22 01:53:23;;;;;;;1.70;0.55;;;20.80;99.90;;;;;;4406485;32;20434;-75
2023/06/22 01:55:51;;;;;;;0.40;0.40;;;20.80;99.90;;;;;;4402230;32;20074;-75
2023/06/22 01:58:16;;;;;;;0.70;0.70;;;20.90;99.90;;;;;;4404882;32;20078;-74
2023/06/22 02:00:50;;;;;;;0.40;0.40;;;21.00;99.90;;;;;;4405672;32;20093;-75
2023/06/22 02:03:21;;;;;;;0.50;0.50;;;21.10;99.90;;;;;;4405183;32;20133;-75
2023/06/22 02:05:51;;;;;;;1.10;0.52;;;21.10;99.90;;;;;;4406063;32;20152;-75
2023/06/22 02:08:24;;;;;;;0.68;0.68;;;21.00;99.90;;;;;;4406509;32;20074;-74
2023/06/22 02:10:52;;;;;;;0.93;0.88;;;21.00;99.90;;;;;;4406370;32;20089;-76
2023/06/22 02:13:19;;;;;;;0.70;0.60;;;21.00;99.90;;;;;;4404289;32;20454;-75
2023/06/22 02:15:45;;;;;;;0.50;0.50;;;21.00;99.90;;;;;;4405819;32;20541;-74
2023/06/22 02:18:12;;;;;;;1.08;0.70;;;21.00;99.90;;;;;;4404158;32;20082;-73
2023/06/22 02:20:38;;;;;;;0.43;0.43;;;20.90;99.90;;;;;;4403577;32;20111;-74
2023/06/22 02:23:04;;;;;;;0.43;0.43;;;21.00;99.90;;;;;;4405159;32;20062;-73
2023/06/22 02:25:31;;;;;;;0.82;0.60;;;20.90;99.90;;;;;;4402256;32;20070;-73
2023/06/22 02:27:56;;;;;;;0.50;0.50;;;20.90;99.90;;;;;;4404186;32;20065;-74
2023/06/22 02:30:22;;;;;;;0.40;0.40;;;20.80;99.90;;;;;;4402016;32;20474;-74
2023/06/22 02:32:47;;;;;;;0.40;0.40;;;20.80;99.90;;;;;;4401610;32;20096;-74
2023/06/22 02:35:13;;;;;;;4.93;1.35;;;20.80;99.90;;;;;;4400142;32;20081;-74
2023/06/22 02:37:41;;;;;;;0.88;0.80;;;20.80;99.90;;;;;;4401217;32;20085;-74
2023/06/22 02:40:08;;;;;;;1.35;0.90;;;20.80;99.90;;;;;;4402007;32;20509;-74
2023/06/22 02:42:35;;;;;;;0.65;0.52;;;20.70;99.90;;;;;;4401230;32;20122;-75
2023/06/22 02:45:01;;;;;;;2.03;0.60;;;20.80;99.90;;;;;;4402645;32;20133;-74
2023/06/22 02:47:27;;;;;;;6.93;0.60;;;20.80;99.90;;;;;;4400568;32;20090;-72
2023/06/22 02:49:52;;;;;;;0.60;0.60;;;20.80;99.90;;;;;;4396310;32;21027;-75
2023/06/22 02:52:18;;;;;;;0.82;0.60;;;20.90;99.90;;;;;;4398001;32;20085;-75
2023/06/22 02:54:45;;;;;;;0.62;0.60;;;20.90;99.90;;;;;;4399888;32;20113;-74
2023/06/22 02:57:13;;;;;;;1.33;0.98;;;20.90;99.90;;;;;;4400783;32;20415;-74
2023/06/22 02:59:41;;;;;;;0.40;0.40;;;21.00;99.90;;;;;;4399245;32;20102;-75
2023/06/22 03:02:08;;;;;;;0.40;0.40;;;21.00;99.90;;;;;;4397055;32;20332;-73
2023/06/22 03:04:34;;;;;;;1.12;0.70;;;21.00;99.90;;;;;;4399716;32;20086;-74
2023/06/22 03:07:01;;;;;;;0.55;0.55;;;21.00;99.90;;;;;;4397558;32;20065;-73
2023/06/22 03:09:28;;;;;;;0.73;0.65;;;21.00;99.90;;;;;;4401556;32;20066;-74
2023/06/22 03:11:54;;;;;;;1.30;0.80;;;21.10;99.90;;;;;;4402891;32;20097;-74
2023/06/22 03:14:20;;;;;;;1.25;0.80;;;21.10;99.90;;;;;;4403569;32;20110;-74
2023/06/22 03:16:45;;;;;;;0.57;0.57;;;21.00;99.90;;;;;;4402127;32;20584;-73
2023/06/22 03:19:11;;;;;;;0.70;0.70;;;21.00;99.90;;;;;;4400791;32;20521;-74
2023/06/22 03:21:39;;;;;;;0.50;0.50;;;21.00;99.90;;;;;;4402082;32;20563;-74
2023/06/22 03:24:05;;;;;;;0.60;0.60;;;21.00;99.90;;;;;;4404760;32;20078;-76
2023/06/22 03:26:31;;;;;;;0.77;0.75;;;21.00;99.90;;;;;;4403490;32;20124;-76
2023/06/22 03:28:56;;;;;;;0.47;0.47;;;21.00;99.90;;;;;;4404191;32;20098;-75
2023/06/22 03:31:22;;;;;;;1.40;1.05;;;21.00;99.90;;;;;;4403618;32;20066;-76
2023/06/22 03:33:54;;;;;;;3.92;0.80;;;21.00;99.90;;;;;;4402678;32;20133;-75
2023/06/22 03:36:19;;;;;;;1.95;0.82;;;21.00;99.90;;;;;;4402675;32;20140;-75
2023/06/22 03:38:47;;;;;;;0.40;0.40;;;21.00;99.90;;;;;;4405352;32;20428;-75
2023/06/22 03:41:15;;;;;;;3.12;1.05;;;21.00;99.90;;;;;;4401896;32;20058;-76
2023/06/22 03:43:41;;;;;;;1.75;0.60;;;21.00;99.90;;;;;;4403796;32;20137;-76
2023/06/22 03:46:07;;;;;;;0.62;0.60;;;21.00;99.90;;;;;;4405340;32;20097;-75
2023/06/22 03:48:33;;;;;;;0.80;0.80;;;21.00;99.90;;;;;;4407202;32;20098;-75
2023/06/22 03:51:00;;;;;;;1.77;0.73;;;21.00;99.90;;;;;;4403713;32;20085;-75
2023/06/22 03:53:26;;;;;;;0.50;0.50;;;21.00;99.90;;;;;;4403296;32;20070;-76
2023/06/22 03:55:58;;;;;;;1.48;0.82;;;21.00;99.90;;;;;;4402830;32;20129;-75
2023/06/22 03:58:23;;;;;;;0.73;0.43;;;21.00;99.90;;;;;;4406937;32;20574;-75
2023/06/22 04:00:52;;;;;;;1.00;0.77;;;21.00;99.90;;;;;;4403938;32;20061;-75
2023/06/22 04:03:23;;;;;;;1.10;0.85;;;20.90;99.90;;;;;;4403873;32;20166;-74
2023/06/22 04:05:49;;;;;;;0.50;0.50;;;21.00;99.90;;;;;;4402691;32;20100;-75
2023/06/22 04:08:15;;;;;;;0.95;0.60;;;20.90;99.90;;;;;;4402174;32;20062;-75
2023/06/22 04:10:40;;;;;;;0.50;0.50;;;20.90;99.90;;;;;;4400536;32;20125;-74
2023/06/22 04:13:07;;;;;;;0.73;0.65;;;20.80;99.90;;;;;;4406379;32;20161;-76
2023/06/22 04:15:33;;;;;;;0.80;0.55;;;20.90;99.90;;;;;;4404627;32;20529;-73
2023/06/22 04:17:58;;;;;;;0.60;0.60;;;20.80;99.90;;;;;;4406446;32;20128;-73
2023/06/22 04:20:25;;;;;;;1.95;0.95;;;20.90;99.90;;;;;;4405298;32;20428;-74
2023/06/22 04:22:53;;;;;;;3.92;0.88;;;20.90;99.90;;;;;;4399956;32;20078;-73
2023/06/22 04:25:19;;;;;;;0.40;0.40;;;20.90;99.90;;;;;;4401232;32;20447;-74
2023/06/22 04:27:46;;;;;;;0.77;0.77;;;20.90;99.90;;;;;;4405034;32;20066;-73
2023/06/22 04:30:14;;;;;;;1.42;1.10;;;20.90;99.90;;;;;;4404666;32;20070;-73
2023/06/22 04:32:40;;;;;;;0.52;0.52;;;20.90;99.90;;;;;;4401346;32;20098;-74
2023/06/22 04:35:06;;;;;;;0.43;0.43;;;20.90;99.90;;;;;;4404564;32;20073;-74
2023/06/22 04:37:32;;;;;;;9.32;1.27;;;20.90;99.90;;;;;;4403167;32;20134;-75
2023/06/22 04:39:58;;;;;;;0.80;0.68;;;21.00;99.90;;;;;;4403617;32;20061;-74
2023/06/22 04:42:26;;;;;;;2.05;0.85;;;20.90;99.90;;;;;;4405645;32;20066;-73
2023/06/22 04:44:51;;;;;;;1.20;1.08;;;21.00;99.90;;;;;;4404712;32;20086;-73
2023/06/22 04:47:17;;;;;;;2.20;0.77;;;21.00;99.90;;;;;;4403200;32;20082;-73
2023/06/22 04:49:43;;;;;;;2.17;1.12;;;21.00;99.90;;;;;;4402847;32;20162;-73
2023/06/22 04:52:09;;;;;;;0.60;0.60;;;20.90;99.90;;;;;;4402145;32;20546;-73
2023/06/22 04:54:37;;;;;;;6.80;2.47;;;21.00;99.90;;;;;;4405287;32;20069;-74
2023/06/22 04:57:05;;;;;;;1.00;0.60;;;21.00;99.90;;;;;;4402706;32;20097;-75
2023/06/22 04:59:31;;;;;;;1.62;0.60;;;21.10;99.90;;;;;;4404649;32;20086;-73
2023/06/22 05:01:58;;;;;;;0.65;0.65;;;21.10;99.90;;;;;;4400274;32;20062;-73
2023/06/22 05:04:24;;;;;;;0.82;0.70;;;21.20;99.90;;;;;;4402060;32;20086;-74
2023/06/22 05:06:51;;;;;;;0.73;0.60;;;21.20;99.90;;;;;;4400372;32;20106;-74
2023/06/22 05:09:17;;;;;;;1.08;0.75;;;21.30;99.90;;;;;;4403027;32;20070;-73
2023/06/22 05:11:43;;;;;;;0.68;0.68;;;21.40;99.90;;;;;;4401104;32;20097;-75
2023/06/22 05:14:08;;;;;;;1.25;0.85;;;21.40;99.90;;;;;;4401447;32;20307;-73
2023/06/22 05:16:34;;;;;;;0.40;0.40;;;21.40;99.90;;;;;;4397210;32;20082;-76
2023/06/22 05:19:00;;;;;;;0.52;0.52;;;21.40;99.90;;;;;;4398721;32;20098;-74
2023/06/22 05:21:26;;;;;;;0.45;0.45;;;21.50;99.90;;;;;;4405024;32;20606;-73
2023/06/22 05:23:53;;;;;;;0.85;0.85;;;21.60;99.90;;;;;;4401521;32;20078;-73
2023/06/22 05:26:21;;;;;;;0.90;0.60;;;21.60;99.90;;;;;;4392595;32;20166;-75
2023/06/22 05:28:47;;;;;;;0.40;0.40;;;21.70;99.90;;;;;;4400145;32;20073;-74
2023/06/22 05:31:14;;;;;;;0.55;0.55;;;21.80;99.90;;;;;;4383693;32;21087;-75
2023/06/22 05:33:41;;;;;;;0.50;0.50;;;21.90;99.90;;;;;;4399574;32;20909;-74
2023/06/22 05:36:07;;;;;;;0.20;0.20;;;21.90;99.90;;;;;;4400418;32;20093;-74
2023/06/22 05:38:33;;;;;;;1.55;0.55;;;21.90;99.90;;;;;;4399320;32;21185;-74
2023/06/22 05:41:00;;;;;;;1.00;0.40;;;22.00;99.90;;;;;;4403357;32;20081;-73
2023/06/22 05:43:27;;;;;;;1.75;1.00;;;22.00;99.90;;;;;;4398300;32;20146;-75
2023/06/22 05:45:53;;;;;;;0.35;0.35;;;22.00;99.90;;;;;;4397291;32;20098;-74
2023/06/22 05:48:20;;;;;;;0.30;0.30;;;22.00;99.90;;;;;;4394351;32;20069;-75
2023/06/22 05:50:48;;;;;;;0.40;0.40;;;22.00;99.90;;;;;;4394317;32;20078;-73
2023/06/22 05:53:14;;;;;;;0.57;0.47;;;22.00;99.90;;;;;;4397156;32;20065;-77
2023/06/22 05:55:40;;;;;;;0.62;0.62;;;22.00;99.90;;;;;;4402358;32;20817;-77
2023/06/22 05:58:13;;;;;;;0.90;0.40;;;22.10;99.90;;;;;;4402577;32;20965;-75
2023/06/22 06:00:41;;;;;;;1.87;0.50;;;22.20;99.90;;;;;;4396146;32;20100;-76
2023/06/22 06:03:16;;;;;;;1.48;0.95;;;22.30;99.90;;;;;;4389915;32;20894;-77
2023/06/22 06:05:43;;;;;;;0.45;0.45;;;22.40;99.90;;;;;;4387730;32;20187;-76
2023/06/22 06:08:10;;;;;;;1.12;0.50;;;22.40;99.90;;;;;;4383894;32;20106;-76
2023/06/22 06:10:36;;;;;;;0.65;0.65;;;22.40;99.90;;;;;;4381317;32;20105;-75
2023/06/22 06:13:02;;;;;;;3.90;0.70;;;22.40;99.90;;;;;;4374238;32;20072;-74
2023/06/22 06:15:28;;;;;;;2.00;1.00;;;22.50;99.90;;;;;;4386564;32;20117;-74
2023/06/22 06:17:54;;;;;;;0.40;0.40;;;22.50;99.90;;;;;;4384773;32;20374;-76
2023/06/22 06:20:22;;;;;;;0.40;0.40;;;22.70;99.90;;;;;;4386489;32;20644;-75
2023/06/22 06:22:48;;;;;;;0.40;0.40;;;22.80;99.90;;;;;;4380914;32;20503;-74
2023/06/22 06:25:16;;;;;;;0.90;0.55;;;22.90;99.90;;;;;;4378016;32;20108;-75
2023/06/22 06:27:43;;;;;;;0.50;0.50;;;22.90;99.90;;;;;;4380949;32;20102;-73
2023/06/22 06:30:12;;;;;;;0.73;0.50;;;23.00;99.90;;;;;;4387555;32;20113;-74
2023/06/22 06:32:38;;;;;;;0.40;0.40;;;23.10;99.90;;;;;;4390500;32;20470;-74
2023/06/22 06:35:05;;;;;;;0.45;0.45;;;23.20;99.90;;;;;;4386250;32;20726;-76
2023/06/22 06:37:31;;;;;;;1.45;0.52;;;23.30;99.90;;;;;;4380289;32;20092;-75
2023/06/22 06:39:57;;;;;;;3.35;1.33;;;23.30;99.90;;;;;;4387952;32;20558;-74
2023/06/22 06:42:24;;;;;;;0.62;0.40;;;23.40;99.90;;;;;;4375199;32;21012;-73
2023/06/22 06:44:49;;;;;;;0.40;0.40;;;23.40;99.90;;;;;;4389273;32;20105;-73
2023/06/22 06:47:16;;;;;;;0.40;0.40;;;23.50;99.90;;;;;;4384677;32;20063;-76
2023/06/22 06:49:42;;;;;;;2.72;0.37;;;23.50;99.90;;;;;;4377772;32;20549;-74
2023/06/22 06:52:08;;;;;;;0.20;0.20;;;23.60;99.90;;;;;;4383141;32;20878;-74
2023/06/22 06:54:33;;;;;;;0.50;0.50;;;23.60;99.90;;;;;;4386755;32;20415;-74
2023/06/22 06:56:59;;;;;;;0.30;0.30;;;23.70;99.90;;;;;;4385936;32;20209;-75
2023/06/22 06:59:24;;;;;;;0.30;0.30;;;23.80;99.90;;;;;;4384161;32;20585;-74
2023/06/22 07:01:50;;;;;;;0.45;0.45;;;23.80;99.90;;;;;;4375440;32;20089;-73
2023/06/22 07:04:15;;;;;;;0.25;0.20;;;23.80;99.90;;;;;;4382536;32;20154;-73
2023/06/22 07:06:41;;;;;;;0.22;0.22;;;23.80;99.90;;;;;;4379197;32;20086;-74
2023/06/22 07:09:07;;;;;;;0.30;0.30;;;23.70;99.90;;;;;;4371163;32;20143;-73
2023/06/22 07:11:35;;;;;;;2.83;0.40;;;23.80;99.90;;;;;;4385388;32;20077;-75
2023/06/22 07:14:01;;;;;;;0.40;0.40;;;23.90;99.90;;;;;;4386293;32;20153;-75
2023/06/22 07:16:27;;;;;;;0.45;0.45;;;24.10;99.90;;;;;;4394118;32;20085;-74
2023/06/22 07:18:53;;;;;;;1.40;0.68;;;24.20;99.90;;;;;;4383126;32;20329;-74
2023/06/22 07:21:18;;;;;;;0.40;0.40;;;24.30;99.90;;;;;;4385324;32;20080;-74
2023/06/22 07:23:44;;;;;;;0.10;0.10;;;24.40;99.90;;;;;;4374588;32;20094;-73
2023/06/22 07:26:09;;;;;;;0.40;0.40;;;24.50;99.90;;;;;;4376143;32;20110;-77
2023/06/22 07:28:37;;;;;;;0.30;0.30;;;24.50;99.90;;;;;;4376975;32;20184;-74
2023/06/22 07:31:04;;;;;;;0.40;0.40;;;24.50;99.90;;;;;;4369277;32;20132;-76
2023/06/22 07:33:29;;;;;;;1.30;0.30;;;24.50;99.90;;;;;;4383149;32;20160;-75
2023/06/22 07:35:55;;;;;;;0.37;0.37;;;24.50;99.90;;;;;;4388276;32;20078;-76
2023/06/22 07:38:20;;;;;;;0.30;0.30;;;24.60;99.90;;;;;;4381602;32;20094;-74
2023/06/22 07:40:47;;;;;;;0.30;0.30;;;24.70;99.90;;;;;;4385484;32;20531;-74
2023/06/22 07:43:13;;;;;;;0.70;0.50;;;24.80;99.90;;;;;;4382852;32;20113;-75
2023/06/22 07:45:40;;;;;;;0.40;0.30;;;24.90;99.90;;;;;;4383141;32;21530;-76
2023/06/22 07:48:07;;;;;;;0.40;0.40;;;24.90;99.90;;;;;;4384247;32;20086;-75
2023/06/22 07:50:32;;;;;;;0.20;0.20;;;25.00;99.90;;;;;;4373258;32;20098;-76
2023/06/22 07:52:58;;;;;;;0.20;0.20;;;25.00;99.90;;;;;;4382497;32;20514;-75
2023/06/22 07:55:23;;;;;;;0.30;0.30;;;25.00;99.90;;;;;;4378270;32;20183;-76
2023/06/22 07:57:51;;;;;;;2.65;1.10;;;24.90;99.90;;;;;;4383758;32;20101;-76
2023/06/22 08:00:17;;;;;;;0.30;0.30;;;24.90;99.90;;;;;;4391021;32;20123;-75
2023/06/22 08:02:45;;;;;;;0.43;0.43;;;24.90;99.90;;;;;;4391716;32;20530;-74
2023/06/22 08:05:11;;;;;;;0.28;0.28;;;24.90;99.90;;;;;;4384762;32;20208;-74
2023/06/22 08:07:38;;;;;;;0.35;0.35;;;24.90;99.90;;;;;;4388183;32;20539;-73
2023/06/22 08:10:06;;;;;;;0.22;0.22;;;25.10;99.90;;;;;;4391095;32;20183;-76
2023/06/22 08:12:31;;;;;;;0.22;0.22;;;25.10;99.90;;;;;;4390487;32;20101;-75
2023/06/22 08:14:57;;;;;;;0.22;0.22;;;25.10;99.90;;;;;;4400159;32;21316;-74
2023/06/22 08:17:24;;;;;;;0.40;0.40;;;25.10;99.90;;;;;;4391973;32;20210;-76
2023/06/22 08:19:49;;;;;;;0.20;0.20;;;25.10;99.90;;;;;;4384958;32;20624;-75
2023/06/22 08:22:16;;;;;;;0.10;0.10;;;25.10;99.90;;;;;;4389623;32;20429;-75
2023/06/22 08:24:41;;;;;;;1.12;0.55;;;25.20;99.90;;;;;;4390203;32;20205;-75
2023/06/22 08:27:09;;;;;;;0.47;0.40;;;25.20;99.90;;;;;;4383916;32;21334;-75
2023/06/22 08:29:35;;;;;;;2.00;0.82;;;25.20;99.90;;;;;;4386128;32;20081;-74
2023/06/22 08:32:00;;;;;;;0.20;0.20;;;25.30;99.90;;;;;;4385187;32;20173;-74
2023/06/22 08:34:34;;;;;;;0.32;0.25;;;25.30;99.90;;;;;;4387961;32;20082;-76
2023/06/22 08:37:00;;;;;;;2.40;0.40;;;25.40;99.90;;;;;;4390255;32;20815;-76
2023/06/22 08:39:27;;;;;;;0.10;0.10;;;25.40;99.90;;;;;;4385882;32;20085;-75
2023/06/22 08:41:53;;;;;;;0.30;0.30;;;25.50;99.90;;;;;;4386830;32;20145;-76
2023/06/22 08:44:19;;;;;;;0.43;0.28;;;25.60;99.90;;;;;;4381266;32;20110;-75
2023/06/22 08:46:45;;;;;;;1.55;0.25;;;25.60;98.70;;;;;;4380544;32;20782;-75
2023/06/22 08:49:10;;;;;;;0.20;0.20;;;25.70;99.30;;;;;;4382075;32;20116;-75
2023/06/22 08:51:36;;;;;;;0.28;0.28;;;25.90;99.40;;;;;;4380133;32;20098;-75
2023/06/22 08:54:02;;;;;;;0.55;0.50;;;26.10;99.90;;;;;;4370598;32;20153;-74
2023/06/22 08:56:27;;;;;;;0.45;0.45;;;26.30;99.80;;;;;;4383072;32;20224;-76
2023/06/22 08:58:53;;;;;;;0.47;0.30;;;26.20;98.90;;;;;;4390799;32;20723;-75
2023/06/22 09:01:18;;;;;;;1.00;0.47;;;26.30;99.00;;;;;;4384553;32;20097;-75
2023/06/22 09:03:48;;;;;;;0.20;0.20;;;26.10;99.10;;;;;;4383661;32;20066;-75
2023/06/22 09:06:14;;;;;;;0.95;0.77;;;26.00;99.40;;;;;;4391664;32;20089;-75
2023/06/22 09:08:39;;;;;;;0.10;0.10;;;26.10;99.90;;;;;;4381842;32;20089;-76
2023/06/22 09:11:05;;;;;;;1.45;0.75;;;26.00;98.90;;;;;;4383810;32;21474;-76
2023/06/22 09:13:31;;;;;;;0.28;0.28;;;26.10;99.10;;;;;;4387073;32;21067;-76
2023/06/22 09:15:57;;;;;;;0.40;0.40;;;26.10;99.90;;;;;;4384361;32;20102;-75
2023/06/22 09:18:22;;;;;;;0.10;0.10;;;26.20;99.30;;;;;;4382043;32;20199;-74
2023/06/22 09:20:49;;;;;;;0.80;0.20;;;26.30;99.30;;;;;;4384890;32;20093;-74
2023/06/22 09:23:14;;;;;;;0.40;0.40;;;26.30;98.30;;;;;;4374585;32;22228;-75
2023/06/22 09:25:40;;;;;;;0.15;0.15;;;26.40;99.90;;;;;;4382619;32;20085;-76
2023/06/22 09:28:07;;;;;;;0.10;0.10;;;26.40;98.90;;;;;;4385740;32;20213;-77
2023/06/22 09:30:32;;;;;;;5.47;0.37;;;26.50;99.70;;;;;;4379909;32;20090;-76
2023/06/22 09:32:58;;;;;;;0.65;0.40;;;26.40;99.40;;;;;;4377286;32;20505;-76
2023/06/22 09:35:24;;;;;;;0.20;0.20;;;26.40;99.40;;;;;;4388632;32;20098;-77
2023/06/22 09:37:49;;;;;;;0.57;0.57;;;26.40;99.10;;;;;;4386989;32;20070;-76
2023/06/22 09:40:16;;;;;;;0.30;0.30;;;26.40;99.90;;;;;;4390616;32;20465;-75
2023/06/22 09:42:42;;;;;;;0.17;0.17;;;26.40;99.90;;;;;;4381310;32;20500;-74
2023/06/22 09:45:08;;;;;;;3.55;0.43;;;26.40;99.90;;;;;;4384508;32;20098;-74
2023/06/22 09:47:34;;;;;;;1.27;0.52;;;26.50;99.90;;;;;;4386330;32;20089;-75
2023/06/22 09:50:00;;;;;;;0.20;0.20;;;26.50;99.90;;;;;;4389361;32;20113;-76
2023/06/22 09:52:27;;;;;;;0.30;0.30;;;26.60;99.60;;;;;;4399249;32;20081;-76
2023/06/22 09:55:00;;;;;;;0.20;0.20;;;26.70;99.90;;;;;;4396336;32;20110;-75
2023/06/22 09:57:26;;;;;;;0.47;0.37;;;26.70;99.90;;;;;;4396695;32;20469;-76
2023/06/22 09:59:51;;;;;;;0.60;0.60;;;26.70;99.40;;;;;;4398211;32;20089;-74
2023/06/22 10:02:18;;;;;;;0.17;0.17;;;26.80;99.80;;;;;;4397452;32;20077;-76
2023/06/22 10:04:43;;;;;;;0.57;0.40;;;26.90;99.20;;;;;;4400650;32;20479;-75
2023/06/22 10:07:09;;;;;;;0.62;0.20;;;27.00;98.70;;;;;;4386091;32;20090;-75
2023/06/22 10:09:34;;;;;;;0.15;0.15;;;27.10;98.80;;;;;;4386434;32;20094;-77
2023/06/22 10:12:00;;;;;;;0.20;0.20;;;27.30;97.80;;;;;;4382528;32;20754;-74
2023/06/22 10:14:27;;;;;;;0.10;0.10;;;27.40;97.20;;;;;;4388086;32;20884;-74
2023/06/22 10:16:53;;;;;;;0.57;0.35;;;27.50;97.40;;;;;;4387640;32;20086;-75
2023/06/22 10:19:18;;;;;;;0.25;0.10;;;27.50;96.50;;;;;;4381830;32;20102;-74
2023/06/22 10:21:44;;;;;;;0.20;0.20;;;27.40;98.40;;;;;;4388560;32;20109;-76
2023/06/22 10:24:09;;;;;;;0.13;0.13;;;27.50;97.30;;;;;;4377873;32;20118;-76
2023/06/22 10:26:35;;;;;;;1.33;0.73;;;27.60;97.70;;;;;;4385833;32;20189;-75
2023/06/22 10:29:02;;;;;;;0.20;0.20;;;27.70;97.50;;;;;;4380415;32;20109;-74
2023/06/22 10:31:28;;;;;;;0.85;0.57;;;27.80;96.70;;;;;;4377944;32;20726;-76
2023/06/22 10:33:54;;;;;;;1.00;0.43;;;27.80;95.70;;;;;;4383487;32;20180;-75
2023/06/22 10:36:21;;;;;;;0.47;0.30;;;27.80;95.30;;;;;;4387449;32;21066;-76
2023/06/22 10:38:47;;;;;;;0.22;0.22;;;27.90;95.80;;;;;;4385224;32;20101;-74
2023/06/22 10:41:13;;;;;;;0.37;0.30;;;28.20;96.80;;;;;;4388851;32;20082;-75
2023/06/22 10:43:40;;;;;;;0.10;0.10;;;28.50;95.90;;;;;;4392507;32;20541;-76
2023/06/22 10:46:06;;;;;;;0.17;0.17;;;28.80;94.50;;;;;;4400089;32;20924;-76
2023/06/22 10:48:32;;;;;;;0.10;0.10;;;29.10;95.40;;;;;;4394050;32;20482;-74
2023/06/22 10:50:58;;;;;;;0.17;0.17;;;29.40;94.10;;;;;;4393207;32;20101;-75
2023/06/22 10:53:23;;;;;;;0.20;0.20;;;29.50;95.80;;;;;;4388569;32;20089;-75
2023/06/22 10:55:49;;;;;;;0.00;0.00;;;29.50;94.10;;;;;;4392200;32;20089;-76
2023/06/22 10:58:22;;;;;;;0.20;0.20;;;29.60;93.20;;;;;;4393168;32;20070;-76
2023/06/22 11:00:48;;;;;;;0.40;0.40;;;29.80;92.60;;;;;;4394142;32;20441;-77
2023/06/22 11:03:14;;;;;;;0.13;0.13;;;29.90;93.60;;;;;;4389492;32;20086;-74
2023/06/22 11:05:39;;;;;;;0.43;0.25;;;30.20;92.20;;;;;;4391042;32;20070;-77
2023/06/22 11:08:05;;;;;;;0.10;0.10;;;29.90;92.10;;;;;;4391511;32;20145;-77
2023/06/22 11:10:32;;;;;;;0.00;0.00;;;29.60;93.10;;;;;;4385965;32;20109;-76
2023/06/22 11:12:58;;;;;;;3.83;0.37;;;29.80;92.10;;;;;;4391353;32;20097;-78
2023/06/22 11:15:25;;;;;;;0.20;0.20;;;29.90;92.80;;;;;;4394964;32;20086;-77
2023/06/22 11:17:55;;;;;;;0.20;0.20;;;30.10;91.60;;;;;;4398503;32;20073;-77
2023/06/22 11:20:21;;;;;;;0.10;0.10;;;30.40;92.10;;;;;;4394510;32;20148;-76
2023/06/22 11:22:48;;;;;;;0.20;0.20;;;30.20;92.10;;;;;;4400071;32;20086;-76
2023/06/22 11:25:13;;;;;;;0.10;0.10;;;30.60;91.00;;;;;;4399044;32;20074;-77
2023/06/22 11:27:41;;;;;;;0.20;0.20;;;30.70;91.50;;;;;;4399043;32;20173;-77
2023/06/22 11:30:09;;;;;;;0.20;0.20;;;30.90;91.20;;;;;;4397322;32;20098;-78
2023/06/22 11:32:35;;;;;;;0.10;0.10;;;31.10;92.00;;;;;;4398114;32;20101;-78
2023/06/22 11:35:01;;;;;;;0.30;0.30;;;31.40;90.30;;;;;;4396940;32;20078;-76
2023/06/22 11:37:26;;;;;;;0.20;0.20;;;31.60;88.00;;;;;;4393282;32;20136;-76
2023/06/22 11:39:54;;;;;;;0.73;0.30;;;31.40;86.50;;;;;;4394096;32;20104;-75
2023/06/22 11:42:20;;;;;;;0.20;0.20;;;31.40;89.70;;;;;;4390714;32;20156;-74
2023/06/22 11:44:45;;;;;;;0.20;0.20;;;31.20;88.50;;;;;;4397358;32;20166;-77
2023/06/22 11:47:11;;;;;;;0.20;0.20;;;31.30;87.20;;;;;;4392174;32;133549;-76
2023/06/22 11:49:36;;;;;;;0.10;0.10;;;31.60;89.10;;;;;;4396849;32;20114;-76
2023/06/22 11:52:03;;;;;;;0.10;0.10;;;32.00;86.00;;;;;;4396332;32;20054;-76
2023/06/22 11:54:29;;;;;;;1.05;0.47;;;32.30;86.10;;;;;;4399930;32;20066;-76
2023/06/22 11:56:55;;;;;;;0.25;0.25;;;32.30;86.90;;;;;;4397541;32;20200;-76
2023/06/22 11:59:22;;;;;;;0.25;0.25;;;32.30;88.00;;;;;;4395932;32;20097;-76
2023/06/22 12:01:51;;;;;;;0.45;0.30;;;32.00;85.20;;;;;;4396564;32;20524;-76
2023/06/22 12:04:16;;;;;;;0.08;0.08;;;31.50;84.50;;;;;;4396998;32;20098;-76
2023/06/22 12:06:43;;;;;;;0.43;0.30;;;31.60;85.00;;;;;;4395172;32;21169;-74
2023/06/22 12:09:09;;;;;;;0.28;0.28;;;32.00;84.80;;;;;;4398882;32;20082;-76
2023/06/22 12:11:35;;;;;;;0.20;0.20;;;32.40;85.00;;;;;;4398669;32;20507;-75
2023/06/22 12:14:01;;;;;;;0.80;0.50;;;32.80;81.80;;;;;;4394546;32;20180;-76
2023/06/22 12:16:28;;;;;;;0.20;0.20;;;33.20;81.40;;;;;;4390778;32;20093;-76
2023/06/22 12:18:54;;;;;;;0.30;0.30;;;33.70;80.30;;;;;;4394907;32;20146;-75
2023/06/22 12:21:20;;;;;;;0.25;0.25;;;34.00;80.60;;;;;;4393858;32;20596;-75
2023/06/22 12:23:46;;;;;;;0.80;0.57;;;34.00;80.10;;;;;;4391191;32;20121;-77
2023/06/22 12:26:12;;;;;;;0.22;0.20;;;34.20;78.40;;;;;;4394065;32;20082;-76
2023/06/22 12:28:38;;;;;;;0.30;0.30;;;34.30;76.80;;;;;;4392630;32;20466;-76
2023/06/22 12:31:05;;;;;;;0.20;0.20;;;34.10;75.70;;;;;;4391556;32;20101;-75
2023/06/22 12:33:30;;;;;;;0.28;0.28;;;33.90;76.50;;;;;;4392542;32;20077;-75
2023/06/22 12:35:57;;;;;;;0.20;0.20;;;33.90;76.30;;;;;;4390381;32;20090;-75
2023/06/22 12:38:25;;;;;;;0.60;0.60;;;33.50;77.10;;;;;;4387399;32;20103;-77
2023/06/22 12:40:50;;;;;;;1.17;0.30;;;33.30;77.50;;;;;;4392859;32;20078;-76
2023/06/22 12:43:16;;;;;;;0.20;0.20;;;33.30;80.70;;;;;;4391600;32;20380;-76
2023/06/22 12:45:41;;;;;;;0.30;0.30;;;33.60;77.30;;;;;;4395442;32;20114;-76